Weather at Chicago Meigs Airport [CLOSED]

Public forecast

Using degrees Fahrenheit for public forecast. Weather courtesy of forecast.io.

Closest aviation weather report (METAR) to Chicago Meigs Airport

Closest report is Chicago Midway International Airport, 7.8 nm (14.5 km) SW. Retrieved 2022/05/17 22:53 UTC (1 hour ago):

KMDW 172253Z 10008KT 10SM -RA FEW038 OVC110 14/04 A3003 RMK AO2 RAB36 SLP169 P0000 T01390039

Closest aviation forecast (TAF) to Chicago Meigs Airport

Closest forecast is Chicago Midway International Airport, 7.8 nm (14.5 km) SW. Retrieved 2022/05/17 18:22 UTC (6 hours ago):

TAF KMDW 171720Z 1718/1824 07008KT P6SM FEW100 BKN250 FM180900 09009KT P6SM BKN050 PROB30 1809/1812 -SHRA FM181200 10009KT P6SM VCSH BKN030 FM181500 12007KT 6SM -SHRA SCT010 BKN020 FM182000 33005KT P6SM SCT010 BKN020